createdAt,value
2022-10-20T00:01:07.727Z,5.88
2022-10-20T00:03:34.891Z,6.55
2022-10-20T00:06:32.529Z,6.65
2022-10-20T00:09:04.045Z,6.40
2022-10-20T00:11:31.447Z,6.13
2022-10-20T00:13:59.580Z,7.85
2022-10-20T00:16:28.970Z,7.55
2022-10-20T00:18:56.766Z,6.38
2022-10-20T00:21:26.694Z,5.85
2022-10-20T00:23:54.151Z,7.15
2022-10-20T00:26:26.077Z,6.53
2022-10-20T00:28:53.961Z,6.60
2022-10-20T00:31:22.834Z,7.55
2022-10-20T00:33:49.657Z,7.80
2022-10-20T00:36:18.594Z,6.38
2022-10-20T00:38:45.680Z,6.47
2022-10-20T00:41:17.969Z,6.75
2022-10-20T00:43:55.770Z,8.90
2022-10-20T00:46:25.617Z,7.85
2022-10-20T00:48:56.756Z,7.10
2022-10-20T00:51:30.085Z,8.70
2022-10-20T00:54:04.669Z,6.00
2022-10-20T00:56:31.815Z,6.85
2022-10-20T00:59:00.279Z,7.35
2022-10-20T01:01:27.243Z,8.40
2022-10-20T01:03:54.195Z,8.38
2022-10-20T01:06:22.573Z,8.20
2022-10-20T01:08:52.430Z,7.65
2022-10-20T01:11:45.617Z,8.00
2022-10-20T01:14:51.612Z,7.88
2022-10-20T01:17:27.709Z,6.82
2022-10-20T01:20:32.551Z,6.15
2022-10-20T01:23:17.814Z,7.60
2022-10-20T01:26:15.319Z,7.35
2022-10-20T01:28:48.811Z,7.90
2022-10-20T01:31:33.640Z,7.75
2022-10-20T01:34:09.820Z,8.13
2022-10-20T01:36:42.974Z,7.80
2022-10-20T01:39:21.121Z,6.82
2022-10-20T01:41:56.512Z,7.45
2022-10-20T01:44:27.541Z,8.45
2022-10-20T01:46:56.799Z,8.88
2022-10-20T01:49:24.542Z,7.15
2022-10-20T01:51:51.352Z,7.63
2022-10-20T01:54:27.569Z,6.43
2022-10-20T01:57:19.190Z,7.85
2022-10-20T01:59:45.911Z,9.32
2022-10-20T02:02:27.375Z,8.43
2022-10-20T02:05:00.266Z,7.65
2022-10-20T02:07:29.802Z,6.68
2022-10-20T02:10:09.797Z,6.90
2022-10-20T02:12:41.395Z,7.78
2022-10-20T02:15:11.070Z,8.52
2022-10-20T02:17:41.128Z,6.68
2022-10-20T02:20:09.258Z,6.15
2022-10-20T02:22:37.922Z,7.22
2022-10-20T02:25:05.346Z,8.73
2022-10-20T02:27:39.026Z,7.18
2022-10-20T02:30:08.852Z,6.43
2022-10-20T02:32:39.072Z,7.72
2022-10-20T02:35:15.057Z,7.13
2022-10-20T02:37:41.972Z,7.28
2022-10-20T02:40:09.150Z,6.32
2022-10-20T02:42:35.973Z,7.53
2022-10-20T02:45:03.217Z,7.65
2022-10-20T02:47:29.982Z,7.55
2022-10-20T02:49:56.778Z,6.90
2022-10-20T02:52:23.547Z,6.85
2022-10-20T02:54:50.386Z,7.20
2022-10-20T02:57:17.445Z,8.73
2022-10-20T02:59:44.192Z,6.93
2022-10-20T03:02:11.062Z,7.68
2022-10-20T03:04:37.846Z,7.85
2022-10-20T03:07:05.471Z,7.82
2022-10-20T03:09:32.534Z,7.53
2022-10-20T03:11:59.296Z,7.38
2022-10-20T03:14:26.061Z,7.72
2022-10-20T03:16:52.830Z,7.07
2022-10-20T03:19:19.615Z,7.93
2022-10-20T03:21:46.848Z,6.60
2022-10-20T03:24:13.610Z,8.07
2022-10-20T03:26:40.407Z,6.38
2022-10-20T03:29:07.402Z,8.15
2022-10-20T03:31:34.198Z,9.02
2022-10-20T03:34:00.991Z,8.35
2022-10-20T03:36:27.749Z,8.65
2022-10-20T03:38:54.504Z,7.43
2022-10-20T03:41:21.277Z,10.50
2022-10-20T03:43:48.049Z,8.57
2022-10-20T03:46:14.884Z,9.32
2022-10-20T03:48:41.937Z,9.13
2022-10-20T03:51:11.947Z,8.70
2022-10-20T03:53:38.768Z,8.85
2022-10-20T03:56:12.446Z,7.72
2022-10-20T03:58:39.273Z,8.38
2022-10-20T04:01:07.561Z,8.98
2022-10-20T04:03:34.354Z,8.55
2022-10-20T04:06:01.151Z,11.13
2022-10-20T04:08:27.951Z,8.75
2022-10-20T04:10:54.782Z,8.38
2022-10-20T04:13:21.552Z,9.18
2022-10-20T04:15:48.332Z,7.53
2022-10-20T04:18:15.307Z,8.80
2022-10-20T04:20:44.433Z,7.80
2022-10-20T04:23:12.254Z,9.15
2022-10-20T04:25:45.955Z,8.48
2022-10-20T04:28:14.317Z,8.88
2022-10-20T04:30:41.489Z,7.55
2022-10-20T04:33:08.613Z,7.63
2022-10-20T04:35:35.855Z,8.02
2022-10-20T04:38:02.733Z,7.18
2022-10-20T04:40:29.485Z,7.47
2022-10-20T04:42:56.241Z,7.75
2022-10-20T04:45:23.003Z,7.97
2022-10-20T04:47:49.787Z,7.50
2022-10-20T04:50:16.715Z,7.55
2022-10-20T04:52:43.487Z,8.50
2022-10-20T04:55:10.254Z,8.18
2022-10-20T04:57:37.149Z,8.55
2022-10-20T05:00:05.068Z,7.40
2022-10-20T05:02:31.880Z,7.65
2022-10-20T05:04:58.776Z,8.60
2022-10-20T05:07:25.575Z,9.23
2022-10-20T05:09:52.641Z,8.27
2022-10-20T05:12:19.432Z,9.25
2022-10-20T05:14:46.246Z,8.18
2022-10-20T05:17:13.119Z,8.52
2022-10-20T05:19:39.892Z,8.80
2022-10-20T05:22:06.746Z,7.45
2022-10-20T05:24:33.539Z,7.47
2022-10-20T05:27:00.310Z,8.82
2022-10-20T05:29:27.157Z,9.90
2022-10-20T05:31:53.969Z,8.32
2022-10-20T05:34:20.737Z,7.82
2022-10-20T05:36:47.505Z,8.77
2022-10-20T05:39:14.322Z,7.38
2022-10-20T05:41:41.122Z,9.38
2022-10-20T05:44:09.177Z,9.55
2022-10-20T05:46:41.753Z,8.40
2022-10-20T05:49:14.187Z,8.50
2022-10-20T05:51:41.037Z,8.77
2022-10-20T05:54:10.578Z,8.10
2022-10-20T05:56:37.414Z,8.65
2022-10-20T05:59:04.174Z,9.05
2022-10-20T06:01:40.497Z,8.60
2022-10-20T06:04:10.793Z,8.48
2022-10-20T06:06:37.581Z,9.10
2022-10-20T06:09:07.026Z,9.30
2022-10-20T06:11:37.122Z,8.35
2022-10-20T06:14:06.548Z,8.65
2022-10-20T06:16:33.427Z,9.80
2022-10-20T06:19:00.397Z,9.50
2022-10-20T06:21:29.611Z,11.02
2022-10-20T06:23:58.990Z,8.60
2022-10-20T06:26:29.926Z,9.18
2022-10-20T06:29:03.577Z,11.05
2022-10-20T06:31:34.226Z,9.70
2022-10-20T06:34:03.862Z,8.80
2022-10-20T06:36:30.643Z,9.75
2022-10-20T06:38:58.959Z,9.25
2022-10-20T06:41:27.274Z,10.55
2022-10-20T06:43:58.645Z,8.68
2022-10-20T06:46:27.918Z,7.90
2022-10-20T06:48:58.563Z,9.65
2022-10-20T06:51:26.291Z,11.40
2022-10-20T06:53:53.338Z,8.27
2022-10-20T06:56:23.673Z,8.38
2022-10-20T06:58:52.621Z,8.13
2022-10-20T07:01:25.572Z,8.35
2022-10-20T07:03:55.618Z,8.90
2022-10-20T07:06:48.385Z,8.75
2022-10-20T07:09:17.995Z,8.98
2022-10-20T07:11:45.408Z,9.13
2022-10-20T07:14:14.824Z,8.77
2022-10-20T07:16:41.806Z,10.45
2022-10-20T07:19:08.649Z,8.82
2022-10-20T07:21:39.154Z,7.30
2022-10-20T07:24:08.029Z,8.13
2022-10-20T07:26:39.742Z,9.18
2022-10-20T07:29:07.089Z,9.18
2022-10-20T07:31:37.420Z,8.50
2022-10-20T07:34:12.779Z,7.50
2022-10-20T07:36:47.497Z,8.15
2022-10-20T07:39:14.383Z,6.88
2022-10-20T07:41:44.114Z,7.35
2022-10-20T07:44:11.219Z,8.75
2022-10-20T07:46:38.071Z,7.07
2022-10-20T07:51:51.812Z,8.27
2022-10-20T07:54:31.759Z,8.20
2022-10-20T07:57:06.501Z,7.25
2022-10-20T07:59:33.624Z,6.63
2022-10-20T08:02:00.918Z,8.25
2022-10-20T08:04:37.976Z,8.15
2022-10-20T08:07:09.389Z,6.53
2022-10-20T08:09:37.723Z,6.90
2022-10-20T08:12:14.326Z,6.78
2022-10-20T08:14:41.804Z,8.45
2022-10-20T08:17:08.669Z,6.32
2022-10-20T08:22:19.998Z,6.38
2022-10-20T08:24:47.312Z,5.75
2022-10-20T08:27:18.209Z,6.05
2022-10-20T08:29:50.958Z,5.70
2022-10-20T08:32:27.299Z,5.47
2022-10-20T08:34:54.095Z,6.15
2022-10-20T08:37:20.902Z,6.28
2022-10-20T08:39:47.654Z,5.80
2022-10-20T08:42:14.524Z,5.65
2022-10-20T08:44:45.773Z,6.38
2022-10-20T08:47:36.767Z,6.15
2022-10-20T08:50:06.325Z,7.18
2022-10-20T08:52:33.354Z,7.32
2022-10-20T08:55:00.349Z,6.00
2022-10-20T08:57:35.968Z,5.97
2022-10-20T09:00:21.897Z,6.57
2022-10-20T09:02:50.669Z,6.10
2022-10-20T09:05:29.045Z,5.93
2022-10-20T09:07:55.917Z,5.78
2022-10-20T09:10:47.171Z,5.43
2022-10-20T09:13:29.256Z,7.47
2022-10-20T09:16:18.400Z,5.72
2022-10-20T09:18:58.942Z,6.03
2022-10-20T09:21:34.725Z,6.43
2022-10-20T09:24:04.268Z,6.57
2022-10-20T09:27:03.972Z,5.75
2022-10-20T09:29:38.875Z,5.63
2022-10-20T09:32:46.007Z,6.18
2022-10-20T09:35:27.440Z,5.50
2022-10-20T09:38:07.985Z,4.40
2022-10-20T09:40:34.910Z,4.85
2022-10-20T09:43:09.610Z,4.55
2022-10-20T09:45:39.382Z,4.43
2022-10-20T09:48:34.345Z,4.78
2022-10-20T09:51:01.721Z,4.97
2022-10-20T09:53:34.606Z,4.15
2022-10-20T09:56:01.877Z,4.30
2022-10-20T09:58:37.996Z,4.50
2022-10-20T10:01:14.883Z,4.95
2022-10-20T10:03:45.083Z,4.15
2022-10-20T10:06:31.984Z,3.42
2022-10-20T10:09:01.772Z,3.85
2022-10-20T10:11:34.890Z,3.42
2022-10-20T10:14:02.838Z,3.83
2022-10-20T10:16:41.683Z,4.78
2022-10-20T10:19:16.517Z,3.25
2022-10-20T10:21:52.149Z,3.67
2022-10-20T10:24:39.761Z,3.42
2022-10-20T10:27:26.720Z,2.90
2022-10-20T10:29:54.937Z,3.70
2022-10-20T10:32:30.282Z,2.65
2022-10-20T10:35:09.895Z,3.03
2022-10-20T10:37:40.405Z,2.80
2022-10-20T10:40:19.942Z,3.30
2022-10-20T10:43:01.785Z,3.33
2022-10-20T10:45:31.320Z,2.90
2022-10-20T10:48:05.137Z,3.35
2022-10-20T10:50:56.376Z,1.92
2022-10-20T10:53:51.249Z,2.53
2022-10-20T10:56:39.800Z,2.25
2022-10-20T10:59:11.687Z,1.83
2022-10-20T11:02:00.892Z,2.47
2022-10-20T11:04:39.612Z,2.65
2022-10-20T11:07:21.389Z,2.97
2022-10-20T11:09:48.119Z,3.10
2022-10-20T11:12:20.721Z,2.78
2022-10-20T11:14:58.048Z,2.60
2022-10-20T11:17:37.529Z,3.20
2022-10-20T11:20:21.213Z,3.03
2022-10-20T11:23:22.924Z,3.20
2022-10-20T11:26:03.307Z,2.13
2022-10-20T11:28:52.282Z,2.35
2022-10-20T11:31:45.230Z,1.90
2022-10-20T11:34:18.471Z,2.63
2022-10-20T11:36:57.211Z,2.42
2022-10-20T11:39:33.240Z,3.42
2022-10-20T11:42:13.340Z,2.67
2022-10-20T11:44:44.544Z,2.83
2022-10-20T11:47:15.657Z,3.57
2022-10-20T11:49:43.570Z,2.33
2022-10-20T11:52:25.259Z,2.25
2022-10-20T11:55:28.313Z,2.80
2022-10-20T12:03:19.341Z,2.10
2022-10-20T12:09:03.797Z,2.08
2022-10-20T12:11:42.684Z,2.90
2022-10-20T12:14:15.626Z,1.88
2022-10-20T12:16:54.703Z,3.85
2022-10-20T12:19:30.267Z,2.63
2022-10-20T12:22:14.715Z,3.28
2022-10-20T12:24:54.700Z,3.10
2022-10-20T12:27:32.666Z,2.97
2022-10-20T12:30:00.905Z,2.60
2022-10-20T12:32:53.579Z,3.47
2022-10-20T12:35:20.346Z,1.55
2022-10-20T12:38:02.487Z,1.98
2022-10-20T12:40:41.515Z,1.92
2022-10-20T12:43:31.784Z,1.77
2022-10-20T12:46:11.171Z,1.73
2022-10-20T12:48:45.152Z,2.08
2022-10-20T12:51:41.253Z,1.95
2022-10-20T12:54:19.989Z,2.03
2022-10-20T12:56:46.944Z,1.88
2022-10-20T12:59:35.278Z,1.92
2022-10-20T13:02:11.173Z,1.65
2022-10-20T13:04:58.660Z,1.73
2022-10-20T13:07:50.282Z,1.90
2022-10-20T13:10:38.096Z,1.42
2022-10-20T13:13:04.864Z,1.83
2022-10-20T13:15:33.506Z,2.45
2022-10-20T13:18:17.735Z,1.73
2022-10-20T13:20:58.883Z,1.95
2022-10-20T13:23:29.478Z,1.70
2022-10-20T13:25:58.847Z,1.73
2022-10-20T13:28:29.034Z,1.73
2022-10-20T13:30:55.828Z,1.48
2022-10-20T13:34:03.162Z,1.73
2022-10-20T13:36:49.349Z,1.70
2022-10-20T13:39:51.191Z,1.67
2022-10-20T13:42:38.237Z,1.00
2022-10-20T13:45:30.750Z,1.00
2022-10-20T13:48:28.914Z,0.82
2022-10-20T13:51:03.850Z,0.50
2022-10-20T13:53:45.444Z,0.65
2022-10-20T13:56:18.185Z,0.47
2022-10-20T13:59:20.687Z,1.02
2022-10-20T14:02:03.792Z,0.70
2022-10-20T14:04:35.783Z,0.45
2022-10-20T14:07:10.754Z,0.82
2022-10-20T14:09:39.585Z,0.80
2022-10-20T14:12:18.660Z,0.50
2022-10-20T14:14:45.999Z,0.60
2022-10-20T14:17:21.684Z,0.70
2022-10-20T14:19:48.602Z,0.60
2022-10-20T14:22:18.322Z,0.57
2022-10-20T14:24:54.949Z,0.98
2022-10-20T14:27:33.374Z,0.88
2022-10-20T14:30:03.084Z,1.10
2022-10-20T14:32:31.628Z,1.70
2022-10-20T14:35:13.573Z,0.60
2022-10-20T14:37:44.671Z,0.88
2022-10-20T14:40:35.950Z,0.68
2022-10-20T14:43:18.514Z,1.05
2022-10-20T14:46:12.878Z,0.85
2022-10-20T14:48:47.545Z,0.70
2022-10-20T14:51:32.618Z,1.02
2022-10-20T14:54:21.413Z,1.00
2022-10-20T14:56:56.826Z,1.17
2022-10-20T14:59:27.077Z,0.98
2022-10-20T15:02:11.697Z,0.95
2022-10-20T15:04:43.229Z,0.77
2022-10-20T15:07:23.392Z,0.93
2022-10-20T15:10:08.122Z,1.00
2022-10-20T15:12:37.994Z,1.70
2022-10-20T15:15:19.098Z,1.02
2022-10-20T15:17:51.609Z,0.60
2022-10-20T15:22:58.566Z,0.85
2022-10-20T15:25:27.316Z,1.30
2022-10-20T15:27:56.122Z,0.68
2022-10-20T15:30:25.178Z,0.80
2022-10-20T15:32:53.487Z,1.20
2022-10-20T15:35:23.720Z,0.52
2022-10-20T15:37:52.771Z,0.95
2022-10-20T15:40:21.570Z,0.85
2022-10-20T15:42:48.948Z,0.93
2022-10-20T15:45:22.839Z,1.25
2022-10-20T15:47:49.726Z,0.60
2022-10-20T15:50:19.465Z,0.77
2022-10-20T15:52:48.519Z,0.60
2022-10-20T15:55:25.075Z,1.23
2022-10-20T15:57:53.171Z,1.00
2022-10-20T16:00:21.763Z,0.60
2022-10-20T16:02:49.618Z,0.80
2022-10-20T16:05:21.441Z,0.52
2022-10-20T16:07:48.444Z,0.95
2022-10-20T16:10:15.215Z,0.88
2022-10-20T16:12:42.077Z,0.90
2022-10-20T16:15:09.942Z,1.08
2022-10-20T16:17:37.009Z,1.35
2022-10-20T16:20:06.182Z,1.25
2022-10-20T16:22:33.689Z,1.30
2022-10-20T16:25:01.535Z,1.08
2022-10-20T16:27:33.066Z,0.80
2022-10-20T16:30:00.946Z,1.33
2022-10-20T16:32:32.812Z,0.82
2022-10-20T16:35:03.026Z,1.00
2022-10-20T16:37:32.069Z,1.05
2022-10-20T16:39:59.767Z,1.35
2022-10-20T16:42:28.329Z,0.65
2022-10-20T16:44:55.201Z,1.33
2022-10-20T16:47:22.061Z,0.77
2022-10-20T16:49:48.840Z,1.98
2022-10-20T16:52:15.598Z,1.02
2022-10-20T16:54:42.705Z,1.73
2022-10-20T16:57:11.334Z,1.60
2022-10-20T16:59:38.757Z,2.00
2022-10-20T17:02:05.978Z,1.23
2022-10-20T17:04:32.792Z,1.42
2022-10-20T17:06:59.606Z,1.10
2022-10-20T17:09:26.698Z,0.80
2022-10-20T17:11:53.477Z,2.00
2022-10-20T17:14:20.360Z,1.45
2022-10-20T17:16:48.253Z,1.88
2022-10-20T17:19:15.056Z,1.15
2022-10-20T17:21:41.868Z,1.23
2022-10-20T17:24:12.899Z,1.33
2022-10-20T17:26:40.920Z,1.27
2022-10-20T17:29:09.514Z,1.00
2022-10-20T17:31:37.744Z,1.42
2022-10-20T17:34:05.010Z,2.03
2022-10-20T17:36:32.279Z,1.00
2022-10-20T17:39:01.598Z,1.50
2022-10-20T17:41:29.114Z,1.90
2022-10-20T17:43:58.577Z,1.73
2022-10-20T17:46:25.376Z,1.58
2022-10-20T17:48:52.166Z,1.73
2022-10-20T17:51:21.874Z,1.77
2022-10-20T17:53:51.187Z,1.33
2022-10-20T17:56:23.500Z,1.30
2022-10-20T17:58:51.861Z,2.05
2022-10-20T18:01:34.559Z,1.00
2022-10-20T18:06:34.444Z,1.45
2022-10-20T18:09:07.282Z,1.93
2022-10-20T18:11:35.537Z,2.80
2022-10-20T18:14:02.835Z,3.63
2022-10-20T18:16:31.885Z,2.47
2022-10-20T18:18:59.889Z,2.60
2022-10-20T18:21:28.448Z,2.20
2022-10-20T18:24:05.044Z,1.83
2022-10-20T18:26:34.265Z,1.67
2022-10-20T18:29:02.218Z,1.92
2022-10-20T18:31:32.277Z,1.77
2022-10-20T18:34:04.349Z,2.00
2022-10-20T18:36:34.789Z,1.80
2022-10-20T18:39:02.047Z,2.53
2022-10-20T18:41:33.066Z,3.05
2022-10-20T18:44:01.738Z,2.20
2022-10-20T18:46:30.642Z,2.13
2022-10-20T18:48:58.301Z,1.85
2022-10-20T18:51:25.469Z,3.17
2022-10-20T18:53:55.253Z,2.58
2022-10-20T18:56:24.035Z,2.10
2022-10-20T18:58:56.650Z,1.88
2022-10-20T19:03:53.514Z,2.45
2022-10-20T19:06:23.780Z,1.73
2022-10-20T19:08:56.066Z,2.80
2022-10-20T19:11:29.166Z,2.13
2022-10-20T19:13:56.953Z,1.65
2022-10-20T19:16:29.642Z,1.45
2022-10-20T19:18:57.840Z,1.80
2022-10-20T19:21:25.521Z,1.98
2022-10-20T19:24:14.113Z,2.00
2022-10-20T19:26:57.129Z,1.67
2022-10-20T19:29:29.203Z,1.55
2022-10-20T19:32:01.809Z,2.30
2022-10-20T19:36:56.097Z,1.45
2022-10-20T19:39:33.088Z,1.95
2022-10-20T19:42:01.293Z,2.03
2022-10-20T19:44:29.510Z,2.45
2022-10-20T21:46:49.463Z,1.48
2022-10-20T21:49:19.423Z,1.77
2022-10-20T21:51:52.571Z,2.17
2022-10-20T21:54:25.441Z,1.40
2022-10-20T21:56:52.907Z,2.10
2022-10-20T21:59:26.827Z,1.95
2022-10-20T22:01:56.428Z,1.70
2022-10-20T22:04:25.618Z,1.40
2022-10-20T22:06:52.830Z,1.92
2022-10-20T22:09:21.041Z,2.67
2022-10-20T22:11:55.192Z,2.10
2022-10-20T22:14:22.798Z,1.95
2022-10-20T22:16:49.641Z,2.22
2022-10-20T22:19:22.063Z,1.67
2022-10-20T22:21:51.111Z,2.15
2022-10-20T22:24:21.053Z,2.00
2022-10-20T22:26:49.446Z,2.45
2022-10-20T22:29:16.387Z,2.83
2022-10-20T22:31:43.771Z,1.65
2022-10-20T22:34:11.198Z,1.30
2022-10-20T22:36:38.061Z,1.88
2022-10-20T22:39:05.074Z,2.33
2022-10-20T22:41:31.886Z,2.53
2022-10-20T22:43:58.903Z,1.48
2022-10-20T22:46:25.967Z,2.67
2022-10-20T22:48:52.932Z,2.15
2022-10-20T22:51:19.805Z,2.22
2022-10-20T22:53:46.635Z,2.33
2022-10-20T22:56:17.457Z,1.65
2022-10-20T22:58:45.015Z,2.88
2022-10-20T23:01:15.330Z,3.20
2022-10-20T23:03:42.814Z,1.77
2022-10-20T23:06:21.764Z,2.40
2022-10-20T23:08:51.199Z,1.63
2022-10-20T23:11:18.097Z,1.55
2022-10-20T23:13:45.677Z,1.52
2022-10-20T23:16:12.804Z,1.27
2022-10-20T23:18:40.400Z,1.70
2022-10-20T23:21:07.918Z,1.75
2022-10-20T23:23:38.206Z,1.10
2022-10-20T23:26:06.365Z,1.38
2022-10-20T23:28:34.317Z,1.60
2022-10-20T23:31:15.856Z,1.33
2022-10-20T23:33:43.916Z,2.47
2022-10-20T23:36:11.554Z,1.10
2022-10-20T23:38:38.460Z,2.08
2022-10-20T23:41:06.163Z,1.35
2022-10-20T23:43:33.849Z,1.27
2022-10-20T23:46:00.770Z,1.40
2022-10-20T23:48:27.931Z,2.55
2022-10-20T23:50:55.061Z,1.73
2022-10-20T23:53:21.927Z,1.02
2022-10-20T23:55:48.762Z,1.10
2022-10-20T23:58:15.809Z,1.20
